createdAt,value
2023-11-30T00:01:55.698Z,1.13
2023-11-30T00:04:00.662Z,1.13
2023-11-30T00:06:08.472Z,1.12
2023-11-30T00:08:11.017Z,1.17
2023-11-30T00:10:18.976Z,1.18
2023-11-30T00:12:23.938Z,1.21
2023-11-30T00:14:29.024Z,1.23
2023-11-30T00:16:34.186Z,1.22
2023-11-30T00:18:39.553Z,1.23
2023-11-30T00:20:44.536Z,1.22
2023-11-30T00:22:50.099Z,1.23
2023-11-30T00:24:52.458Z,1.23
2023-11-30T00:26:57.407Z,1.23
2023-11-30T00:29:07.512Z,1.22
2023-11-30T00:31:10.073Z,1.24
2023-11-30T00:33:15.115Z,1.25
2023-11-30T00:35:17.557Z,1.34
2023-11-30T00:37:23.038Z,1.30
2023-11-30T00:39:25.427Z,1.25
2023-11-30T00:41:30.335Z,1.28
2023-11-30T00:43:37.625Z,1.24
2023-11-30T00:45:43.454Z,1.23
2023-11-30T00:47:48.571Z,1.16
2023-11-30T00:49:53.441Z,1.04
2023-11-30T00:51:58.341Z,0.98
2023-11-30T00:54:03.329Z,0.94
2023-11-30T00:56:09.602Z,0.90
2023-11-30T00:58:14.669Z,0.84
2023-11-30T01:00:20.221Z,0.80
2023-11-30T01:02:27.836Z,0.77
2023-11-30T01:04:32.756Z,0.70
2023-11-30T01:06:37.885Z,0.64
2023-11-30T01:08:42.829Z,0.67
2023-11-30T01:10:47.916Z,0.68
2023-11-30T01:12:52.703Z,0.70
2023-11-30T01:14:57.925Z,0.68
2023-11-30T01:17:02.873Z,0.66
2023-11-30T01:19:10.990Z,0.61
2023-11-30T01:21:18.950Z,0.55
2023-11-30T01:23:23.904Z,0.44
2023-11-30T01:25:26.159Z,0.41
2023-11-30T01:27:31.047Z,0.40
2023-11-30T01:29:37.572Z,0.40
2023-11-30T01:31:42.552Z,0.36
2023-11-30T01:33:47.509Z,0.39
2023-11-30T01:35:57.313Z,0.48
2023-11-30T01:38:02.255Z,0.40
2023-11-30T01:40:09.997Z,0.29
2023-11-30T01:42:15.470Z,0.18
2023-11-30T01:44:20.266Z,0.14
2023-11-30T01:46:25.730Z,0.11
2023-11-30T01:48:34.028Z,0.15
2023-11-30T01:50:39.389Z,0.14
2023-11-30T01:52:44.517Z,0.12
2023-11-30T01:54:49.819Z,0.09
2023-11-30T01:56:55.616Z,0.05
2023-11-30T01:59:01.055Z,0.02
2023-11-30T02:01:06.363Z,0.03
2023-11-30T02:03:13.140Z,0.16
2023-11-30T02:05:18.107Z,0.18
2023-11-30T02:07:23.100Z,0.07
2023-11-30T02:09:28.160Z,0.00
2023-11-30T02:11:33.188Z,-0.09
2023-11-30T02:13:38.275Z,-0.15
2023-11-30T02:15:43.163Z,-0.12
2023-11-30T02:17:49.685Z,-0.11
2023-11-30T02:19:54.616Z,-0.11
2023-11-30T02:22:02.210Z,-0.07
2023-11-30T02:24:08.730Z,-0.07
2023-11-30T02:26:15.273Z,-0.13
2023-11-30T02:28:20.611Z,-0.22
2023-11-30T02:30:27.578Z,-0.20
2023-11-30T02:32:32.488Z,-0.22
2023-11-30T02:34:37.441Z,-0.23
2023-11-30T02:36:43.055Z,-0.29
2023-11-30T02:38:50.597Z,-0.28
2023-11-30T02:40:52.945Z,-0.27
2023-11-30T02:42:57.746Z,-0.25
2023-11-30T02:45:02.724Z,-0.22
2023-11-30T02:47:08.015Z,-0.15
2023-11-30T02:49:13.619Z,-0.09
2023-11-30T02:51:18.679Z,-0.08
2023-11-30T02:53:23.656Z,-0.15
2023-11-30T02:55:31.313Z,-0.15
2023-11-30T02:57:36.572Z,-0.11
2023-11-30T02:59:41.492Z,-0.01
2023-11-30T03:01:48.054Z,-0.10
2023-11-30T03:03:53.135Z,-0.16
2023-11-30T03:05:58.044Z,-0.17
2023-11-30T03:08:00.452Z,-0.24
2023-11-30T03:10:05.795Z,-0.18
2023-11-30T03:12:13.818Z,-0.19
2023-11-30T03:14:18.779Z,-0.34
2023-11-30T03:16:27.443Z,-0.30
2023-11-30T03:18:32.566Z,-0.34
2023-11-30T03:20:37.557Z,-0.32
2023-11-30T03:22:42.676Z,-0.40
2023-11-30T03:24:47.603Z,-0.36
2023-11-30T03:26:52.607Z,-0.42
2023-11-30T03:29:00.229Z,-0.45
2023-11-30T03:31:02.446Z,-0.46
2023-11-30T03:33:07.523Z,-0.50
2023-11-30T03:35:13.189Z,-0.43
2023-11-30T03:37:18.188Z,-0.46
2023-11-30T03:39:23.104Z,-0.47
2023-11-30T03:41:28.062Z,-0.51
2023-11-30T03:43:33.263Z,-0.63
2023-11-30T03:45:40.889Z,-0.69
2023-11-30T03:47:45.742Z,-0.80
2023-11-30T03:49:50.648Z,-0.79
2023-11-30T03:51:53.097Z,-0.88
2023-11-30T03:53:58.210Z,-0.86
2023-11-30T03:56:03.131Z,-0.92
2023-11-30T03:58:09.257Z,-0.96
2023-11-30T04:00:17.845Z,-0.91
2023-11-30T04:02:27.144Z,-0.89
2023-11-30T04:04:32.413Z,-0.96
2023-11-30T04:06:37.335Z,-0.91
2023-11-30T04:08:42.718Z,-0.90
2023-11-30T04:10:47.883Z,-0.93
2023-11-30T04:12:53.995Z,-0.89
2023-11-30T04:14:59.013Z,-0.92
2023-11-30T04:17:04.888Z,-0.91
2023-11-30T04:19:15.853Z,-0.82
2023-11-30T04:21:22.335Z,-0.89
2023-11-30T04:23:27.364Z,-0.91
2023-11-30T04:25:32.305Z,-0.93
2023-11-30T04:27:35.967Z,-0.94
2023-11-30T04:29:41.208Z,-0.77
2023-11-30T04:31:46.435Z,-0.90
2023-11-30T04:33:51.245Z,-0.93
2023-11-30T04:35:58.807Z,-0.88
2023-11-30T04:38:03.774Z,-0.92
2023-11-30T04:40:13.694Z,-0.93
2023-11-30T04:42:19.022Z,-0.96
2023-11-30T04:44:25.880Z,-0.88
2023-11-30T04:46:30.981Z,-0.91
2023-11-30T04:48:41.567Z,-0.84
2023-11-30T04:50:47.639Z,-0.89
2023-11-30T04:52:55.133Z,-0.82
2023-11-30T04:55:00.370Z,-0.82
2023-11-30T04:57:05.463Z,-0.73
2023-11-30T04:59:10.830Z,-0.72
2023-11-30T05:01:16.025Z,-0.64
2023-11-30T05:03:21.437Z,-0.62
2023-11-30T05:05:26.891Z,-0.64
2023-11-30T05:07:29.540Z,-0.61
2023-11-30T05:09:37.363Z,-0.58
2023-11-30T05:11:43.350Z,-0.72
2023-11-30T05:13:48.197Z,-0.68
2023-11-30T05:15:53.130Z,-0.69
2023-11-30T05:17:58.191Z,-0.63
2023-11-30T05:20:04.940Z,-0.68
2023-11-30T05:22:12.284Z,-0.64
2023-11-30T05:24:18.297Z,-0.59
2023-11-30T05:26:27.408Z,-0.57
2023-11-30T05:28:33.609Z,-0.62
2023-11-30T05:30:38.672Z,-0.53
2023-11-30T05:32:40.896Z,-0.54
2023-11-30T05:34:45.799Z,-0.56
2023-11-30T05:36:48.736Z,-0.59
2023-11-30T05:38:53.987Z,-0.52
2023-11-30T05:40:59.347Z,-0.37
2023-11-30T05:43:06.952Z,-0.40
2023-11-30T05:45:13.046Z,-0.36
2023-11-30T05:47:18.932Z,-0.42
2023-11-30T05:49:23.818Z,-0.45
2023-11-30T05:51:30.302Z,-0.38
2023-11-30T05:53:37.193Z,-0.50
2023-11-30T05:55:42.045Z,-0.44
2023-11-30T05:57:46.899Z,-0.50
2023-11-30T05:59:54.488Z,-0.47
2023-11-30T06:02:00.977Z,-0.57
2023-11-30T06:04:06.365Z,-0.50
2023-11-30T06:06:14.470Z,-0.58
2023-11-30T06:08:18.626Z,-0.58
2023-11-30T06:10:25.985Z,-0.63
2023-11-30T06:12:31.075Z,-0.60
2023-11-30T06:14:35.948Z,-0.68
2023-11-30T06:16:43.640Z,-0.64
2023-11-30T06:18:46.107Z,-0.59
2023-11-30T06:20:51.149Z,-0.56
2023-11-30T06:22:56.058Z,-0.48
2023-11-30T06:25:01.100Z,-0.43
2023-11-30T06:27:08.358Z,-0.38
2023-11-30T06:29:14.965Z,-0.37
2023-11-30T06:31:20.426Z,-0.38
2023-11-30T06:33:25.283Z,-0.36
2023-11-30T06:35:30.137Z,-0.36
2023-11-30T06:37:35.018Z,-0.24
2023-11-30T06:39:44.490Z,-0.32
2023-11-30T06:41:53.623Z,-0.27
2023-11-30T06:43:58.906Z,-0.36
2023-11-30T06:46:04.016Z,-0.29
2023-11-30T06:48:11.848Z,-0.27
2023-11-30T06:50:19.610Z,-0.30
2023-11-30T06:52:24.508Z,-0.31
2023-11-30T06:54:27.346Z,-0.31
2023-11-30T06:56:32.405Z,-0.26
2023-11-30T06:58:37.556Z,-0.48
2023-11-30T07:00:44.786Z,-0.50
2023-11-30T07:02:49.591Z,-0.49
2023-11-30T07:04:54.624Z,-0.45
2023-11-30T07:07:02.262Z,-0.39
2023-11-30T07:09:07.567Z,-0.33
2023-11-30T07:11:15.508Z,-0.29
2023-11-30T07:13:20.854Z,-0.24
2023-11-30T07:15:28.802Z,-0.23
2023-11-30T07:17:38.630Z,-0.19
2023-11-30T07:19:40.970Z,-0.18
2023-11-30T07:21:46.005Z,-0.12
2023-11-30T07:23:54.308Z,-0.02
2023-11-30T07:26:00.150Z,-0.03
2023-11-30T07:28:07.100Z,0.02
2023-11-30T07:30:13.832Z,-0.10
2023-11-30T07:32:19.801Z,-0.09
2023-11-30T07:34:25.200Z,-0.05
2023-11-30T07:36:30.122Z,-0.10
2023-11-30T07:38:36.569Z,-0.19
2023-11-30T07:40:44.188Z,-0.24
2023-11-30T07:42:49.140Z,-0.22
2023-11-30T07:44:52.809Z,-0.27
2023-11-30T07:46:57.632Z,-0.22
2023-11-30T07:49:02.756Z,-0.23
2023-11-30T07:51:08.019Z,-0.22
2023-11-30T07:53:13.671Z,-0.31
2023-11-30T07:55:18.884Z,-0.24
2023-11-30T07:57:23.864Z,-0.15
2023-11-30T07:59:28.675Z,-0.17
2023-11-30T08:01:33.892Z,-0.13
2023-11-30T08:03:41.236Z,-0.13
2023-11-30T08:05:47.264Z,-0.16
2023-11-30T08:07:52.361Z,-0.08
2023-11-30T08:09:57.327Z,-0.11
2023-11-30T08:12:02.273Z,-0.05
2023-11-30T08:14:10.363Z,-0.02
2023-11-30T08:16:18.025Z,0.04
2023-11-30T08:18:26.023Z,0.05
2023-11-30T08:20:28.615Z,0.03
2023-11-30T08:22:33.839Z,0.09
2023-11-30T08:24:40.090Z,0.13
2023-11-30T08:26:47.870Z,0.07
2023-11-30T08:28:53.954Z,0.15
2023-11-30T08:31:02.619Z,0.20
2023-11-30T08:33:08.381Z,0.18
2023-11-30T08:35:13.249Z,0.19
2023-11-30T08:37:21.185Z,0.22
2023-11-30T08:39:27.091Z,0.20
2023-11-30T08:41:32.012Z,0.17
2023-11-30T08:43:37.011Z,0.16
2023-11-30T08:45:41.429Z,0.18
2023-11-30T08:47:49.709Z,0.18
2023-11-30T08:49:54.839Z,0.24
2023-11-30T08:52:00.132Z,0.29
2023-11-30T08:54:05.168Z,0.26
2023-11-30T08:56:11.903Z,0.24
2023-11-30T08:58:17.427Z,0.18
2023-11-30T09:00:23.599Z,0.21
2023-11-30T09:02:32.217Z,0.22
2023-11-30T09:04:39.744Z,0.26
2023-11-30T09:06:44.735Z,0.27
2023-11-30T09:08:49.736Z,0.22
2023-11-30T09:10:54.779Z,0.28
2023-11-30T09:13:04.381Z,0.27
2023-11-30T09:15:10.460Z,0.20
2023-11-30T09:17:16.152Z,0.24
2023-11-30T09:19:20.964Z,0.23
2023-11-30T09:21:31.628Z,0.30
2023-11-30T09:23:36.807Z,0.32
2023-11-30T09:25:41.852Z,0.44
2023-11-30T09:27:44.412Z,0.50
2023-11-30T09:29:49.367Z,0.47
2023-11-30T09:31:55.726Z,0.47
2023-11-30T09:34:01.729Z,0.56
2023-11-30T09:36:07.186Z,0.57
2023-11-30T09:38:14.916Z,0.61
2023-11-30T09:40:20.010Z,0.60
2023-11-30T09:42:26.076Z,0.66
2023-11-30T09:44:31.130Z,0.72
2023-11-30T09:46:36.256Z,0.69
2023-11-30T09:48:41.352Z,0.69
2023-11-30T09:50:46.271Z,0.71
2023-11-30T09:52:51.236Z,0.62
2023-11-30T09:55:01.141Z,0.80
2023-11-30T09:57:06.263Z,0.79
2023-11-30T09:59:11.381Z,0.77
2023-11-30T10:01:16.151Z,0.82
2023-11-30T10:03:23.819Z,0.84
2023-11-30T10:05:30.809Z,0.91
2023-11-30T10:07:37.865Z,0.95
2023-11-30T10:09:44.119Z,0.99
2023-11-30T10:11:51.936Z,1.05
2023-11-30T10:14:00.806Z,1.00
2023-11-30T10:16:07.853Z,1.01
2023-11-30T10:18:13.445Z,1.16
2023-11-30T10:20:18.611Z,1.14
2023-11-30T10:22:24.383Z,1.21
2023-11-30T10:24:29.624Z,1.25
2023-11-30T10:26:37.711Z,1.23
2023-11-30T10:28:42.848Z,1.29
2023-11-30T10:30:48.226Z,1.36
2023-11-30T10:32:53.370Z,1.39
2023-11-30T10:35:05.162Z,1.45
2023-11-30T10:37:10.472Z,1.47
2023-11-30T10:39:18.181Z,1.53
2023-11-30T10:41:31.567Z,1.47
2023-11-30T10:43:42.448Z,1.45
2023-11-30T10:45:51.597Z,1.44
2023-11-30T10:47:55.526Z,1.61
2023-11-30T10:50:07.385Z,1.62
2023-11-30T10:52:11.284Z,1.68
2023-11-30T10:54:24.103Z,1.79
2023-11-30T10:56:29.635Z,1.81
2023-11-30T10:58:34.047Z,1.77
2023-11-30T11:00:40.986Z,1.82
2023-11-30T11:02:50.259Z,1.88
2023-11-30T11:04:56.808Z,1.97
2023-11-30T11:07:07.028Z,1.93
2023-11-30T11:09:17.093Z,1.90
2023-11-30T11:11:25.962Z,1.81
2023-11-30T11:13:30.895Z,1.77
2023-11-30T11:15:36.081Z,1.72
2023-11-30T11:17:52.557Z,1.78
2023-11-30T11:19:57.458Z,1.86
2023-11-30T11:22:02.500Z,1.96
2023-11-30T11:24:09.984Z,1.99
2023-11-30T11:26:20.780Z,2.06
2023-11-30T11:28:27.522Z,2.13
2023-11-30T11:30:32.453Z,2.22
2023-11-30T11:32:40.610Z,2.12
2023-11-30T11:34:48.749Z,2.14
2023-11-30T11:36:53.814Z,2.12
2023-11-30T11:38:58.905Z,2.18
2023-11-30T11:41:03.940Z,2.29
2023-11-30T11:43:09.306Z,2.28
2023-11-30T11:45:14.468Z,2.29
2023-11-30T11:47:17.001Z,2.41
2023-11-30T11:49:22.170Z,2.52
2023-11-30T11:51:28.615Z,2.72
2023-11-30T11:53:35.209Z,2.76
2023-11-30T11:55:41.752Z,2.76
2023-11-30T11:57:48.482Z,2.85
2023-11-30T11:59:57.866Z,2.86
2023-11-30T12:02:03.137Z,2.81
2023-11-30T12:04:05.990Z,3.01
2023-11-30T12:06:13.064Z,3.07
2023-11-30T12:08:31.173Z,3.01
2023-11-30T12:10:40.819Z,2.88
2023-11-30T12:12:45.977Z,2.79
2023-11-30T12:14:52.119Z,2.92
2023-11-30T12:16:57.415Z,3.06
2023-11-30T12:18:59.856Z,3.10
2023-11-30T12:21:04.998Z,3.15
2023-11-30T12:23:12.856Z,3.34
2023-11-30T12:25:18.221Z,3.29
2023-11-30T12:27:23.171Z,3.65
2023-11-30T12:29:28.081Z,3.85
2023-11-30T12:31:31.124Z,3.72
2023-11-30T12:33:37.341Z,3.87
2023-11-30T12:35:42.744Z,4.02
2023-11-30T12:37:47.945Z,4.18
2023-11-30T12:39:52.940Z,4.06
2023-11-30T12:42:03.580Z,3.78
2023-11-30T12:44:11.704Z,3.93
2023-11-30T12:46:14.704Z,3.76
2023-11-30T12:48:19.706Z,3.76
2023-11-30T12:50:24.625Z,3.85
2023-11-30T12:52:29.795Z,3.95
2023-11-30T12:54:34.792Z,3.78
2023-11-30T12:56:37.568Z,3.80
2023-11-30T12:58:45.208Z,3.77
2023-11-30T13:00:50.280Z,3.81
2023-11-30T13:02:55.464Z,3.80
2023-11-30T13:05:03.056Z,3.82
2023-11-30T13:07:08.315Z,3.83
2023-11-30T13:09:15.159Z,3.93
2023-11-30T13:11:20.167Z,3.84
2023-11-30T13:13:37.471Z,3.78
2023-11-30T13:15:49.581Z,3.92
2023-11-30T13:17:54.575Z,3.85
2023-11-30T13:19:57.328Z,3.82
2023-11-30T13:22:03.076Z,3.62
2023-11-30T13:24:08.586Z,3.69
2023-11-30T13:26:14.037Z,3.69
2023-11-30T13:28:18.978Z,3.51
2023-11-30T13:30:28.241Z,3.49
2023-11-30T13:32:37.746Z,3.44
2023-11-30T13:34:42.870Z,3.41
2023-11-30T13:36:48.951Z,3.33
2023-11-30T13:38:54.173Z,3.26
2023-11-30T13:41:02.710Z,3.18
2023-11-30T13:43:05.291Z,3.18
2023-11-30T13:45:11.276Z,3.16
2023-11-30T13:47:18.201Z,3.18
2023-11-30T13:49:27.682Z,3.25
2023-11-30T13:51:33.008Z,3.17
2023-11-30T13:53:37.948Z,3.12
2023-11-30T13:55:44.044Z,3.15
2023-11-30T13:57:49.031Z,3.27
2023-11-30T13:59:54.008Z,3.11
2023-11-30T14:01:59.060Z,3.03
2023-11-30T14:04:05.327Z,2.97
2023-11-30T14:06:14.280Z,3.13
2023-11-30T14:08:19.225Z,3.01
2023-11-30T14:10:23.980Z,2.94
2023-11-30T14:12:31.913Z,2.88
2023-11-30T14:14:39.495Z,2.97
2023-11-30T14:16:44.956Z,3.08
2023-11-30T14:18:49.850Z,3.14
2023-11-30T14:20:54.983Z,3.10
2023-11-30T14:23:03.014Z,3.21
2023-11-30T14:25:11.770Z,3.31
2023-11-30T14:27:16.822Z,3.35
2023-11-30T14:29:22.234Z,3.50
2023-11-30T14:31:27.485Z,3.57
2023-11-30T14:33:32.451Z,3.57
2023-11-30T14:35:38.048Z,3.50
2023-11-30T14:37:43.456Z,3.49
2023-11-30T14:39:51.773Z,3.32
2023-11-30T14:41:57.765Z,3.21
2023-11-30T14:44:04.226Z,3.03
2023-11-30T14:46:12.758Z,3.06
2023-11-30T14:48:18.463Z,3.02
2023-11-30T14:50:23.577Z,2.95
2023-11-30T14:52:26.353Z,2.78
2023-11-30T14:54:31.822Z,2.79
2023-11-30T14:56:42.362Z,2.74
2023-11-30T14:58:47.258Z,2.70
2023-11-30T15:00:52.285Z,2.55
2023-11-30T15:02:56.297Z,2.44
2023-11-30T15:05:01.478Z,2.49
2023-11-30T15:07:03.886Z,2.40
2023-11-30T15:09:09.742Z,2.37
2023-11-30T15:11:15.018Z,2.33
2023-11-30T15:13:23.147Z,2.11
2023-11-30T15:15:28.308Z,2.02
2023-11-30T15:17:38.560Z,2.05
2023-11-30T15:19:43.669Z,2.05
2023-11-30T15:21:48.885Z,1.85
2023-11-30T15:23:53.905Z,1.79
2023-11-30T15:25:58.966Z,1.58
2023-11-30T15:28:05.225Z,1.52
2023-11-30T15:30:14.894Z,1.34
2023-11-30T15:32:19.979Z,1.18
2023-11-30T15:34:25.000Z,0.94
2023-11-30T15:36:30.112Z,0.95
2023-11-30T15:38:37.144Z,0.90
2023-11-30T15:40:42.173Z,0.79
2023-11-30T15:42:47.881Z,0.78
2023-11-30T15:44:53.074Z,0.72
2023-11-30T15:47:00.874Z,0.65
2023-11-30T15:49:06.535Z,0.66
2023-11-30T15:51:12.738Z,0.60
2023-11-30T15:53:17.808Z,0.57
2023-11-30T15:55:24.084Z,0.58
2023-11-30T15:57:29.496Z,0.59
2023-11-30T15:59:34.530Z,0.57
2023-11-30T16:01:40.821Z,0.44
2023-11-30T16:03:48.568Z,0.40
2023-11-30T16:05:53.517Z,0.44
2023-11-30T16:07:58.664Z,0.39
2023-11-30T16:10:00.904Z,0.35
2023-11-30T16:12:06.579Z,0.33
2023-11-30T16:14:11.681Z,0.36
2023-11-30T16:16:16.770Z,0.39
2023-11-30T16:18:22.101Z,0.39
2023-11-30T16:20:29.914Z,0.35
2023-11-30T16:22:35.607Z,0.42
2023-11-30T16:24:40.907Z,0.40
2023-11-30T16:26:46.016Z,0.41
2023-11-30T16:28:51.352Z,0.41
2023-11-30T16:30:57.872Z,0.38
2023-11-30T16:33:03.701Z,0.40
2023-11-30T16:35:10.202Z,0.44
2023-11-30T16:37:17.682Z,0.43
2023-11-30T16:39:24.238Z,0.47
2023-11-30T16:41:30.107Z,0.48
2023-11-30T16:43:37.310Z,0.51
2023-11-30T16:45:42.498Z,0.42
2023-11-30T16:47:47.683Z,0.46
2023-11-30T16:49:53.065Z,0.38
2023-11-30T16:51:59.948Z,0.28
2023-11-30T16:54:08.007Z,0.30
2023-11-30T16:56:14.083Z,0.30
2023-11-30T16:58:19.163Z,0.32
2023-11-30T17:00:24.623Z,0.32
2023-11-30T17:02:29.734Z,0.21
2023-11-30T17:04:34.674Z,0.12
2023-11-30T17:06:38.022Z,0.12
2023-11-30T17:08:43.425Z,0.15
2023-11-30T17:10:51.001Z,0.15
2023-11-30T17:12:53.243Z,0.28
2023-11-30T17:14:58.197Z,0.26
2023-11-30T17:17:03.152Z,0.18
2023-11-30T17:19:08.104Z,0.05
2023-11-30T17:21:13.556Z,0.20
2023-11-30T17:23:18.400Z,0.12
2023-11-30T17:25:23.774Z,0.07
2023-11-30T17:27:31.326Z,-0.06
2023-11-30T17:29:41.007Z,-0.03
2023-11-30T17:31:45.875Z,-0.04
2023-11-30T17:33:50.935Z,0.04
2023-11-30T17:35:55.900Z,-0.01
2023-11-30T17:38:00.772Z,-0.01
2023-11-30T17:40:09.696Z,0.04
2023-11-30T17:42:14.571Z,0.07
2023-11-30T17:44:24.000Z,0.05
2023-11-30T17:46:29.001Z,-0.03
2023-11-30T17:48:37.287Z,0.01
2023-11-30T17:50:42.121Z,-0.06
2023-11-30T17:52:46.968Z,0.04
2023-11-30T17:54:51.782Z,0.05
2023-11-30T17:57:00.091Z,0.01
2023-11-30T17:59:05.776Z,0.12
2023-11-30T18:01:18.921Z,0.16
2023-11-30T18:03:26.112Z,0.16
2023-11-30T18:05:31.120Z,0.15
2023-11-30T18:07:36.922Z,0.22
2023-11-30T18:09:42.057Z,0.25
2023-11-30T18:11:47.208Z,0.22
2023-11-30T18:13:52.737Z,0.16
2023-11-30T18:15:59.228Z,0.26
2023-11-30T18:18:08.416Z,0.37
2023-11-30T18:20:11.961Z,0.38
2023-11-30T18:22:17.048Z,0.50
2023-11-30T18:24:23.677Z,0.44
2023-11-30T18:26:30.784Z,0.53
2023-11-30T18:28:35.823Z,0.48
2023-11-30T18:30:41.012Z,0.41
2023-11-30T18:32:47.004Z,0.39
2023-11-30T18:34:56.061Z,0.43
2023-11-30T18:37:01.542Z,0.41
2023-11-30T18:39:07.345Z,0.49
2023-11-30T18:41:13.781Z,0.45
2023-11-30T18:43:18.723Z,0.41
2023-11-30T18:45:23.904Z,0.44
2023-11-30T18:47:30.687Z,0.53
2023-11-30T18:49:37.414Z,0.54
2023-11-30T18:51:45.140Z,0.60
2023-11-30T18:53:50.245Z,0.61
2023-11-30T18:55:56.921Z,0.70
2023-11-30T18:58:03.023Z,0.66
2023-11-30T19:00:10.907Z,0.59
2023-11-30T19:02:13.654Z,0.56
2023-11-30T19:04:18.804Z,0.68
2023-11-30T19:06:28.354Z,0.53
2023-11-30T19:08:38.382Z,0.50
2023-11-30T19:10:43.538Z,0.48
2023-11-30T19:12:50.452Z,0.46
2023-11-30T19:14:55.525Z,0.40
2023-11-30T19:17:00.742Z,0.35
2023-11-30T19:19:06.054Z,0.31
2023-11-30T19:21:11.715Z,0.36
2023-11-30T19:23:16.779Z,0.40
2023-11-30T19:25:24.311Z,0.38
2023-11-30T19:27:29.639Z,0.41
2023-11-30T19:29:36.494Z,0.39
2023-11-30T19:31:41.963Z,0.28
2023-11-30T19:33:47.387Z,0.29
2023-11-30T19:35:55.364Z,0.28
2023-11-30T19:38:00.521Z,0.22
2023-11-30T19:40:05.564Z,0.20
2023-11-30T19:42:13.210Z,0.10
2023-11-30T19:44:18.355Z,0.07
2023-11-30T19:46:26.480Z,0.10
2023-11-30T19:48:31.432Z,0.16
2023-11-30T19:50:39.489Z,0.24
2023-11-30T19:52:42.154Z,0.28
2023-11-30T19:54:47.108Z,0.29
2023-11-30T19:56:52.283Z,0.34
2023-11-30T19:59:00.131Z,0.32
2023-11-30T20:01:05.321Z,0.28
2023-11-30T20:03:15.165Z,0.31
2023-11-30T20:05:20.235Z,0.32
2023-11-30T20:07:25.240Z,0.33
2023-11-30T20:09:30.336Z,0.33
2023-11-30T20:11:35.949Z,0.29
2023-11-30T20:13:40.991Z,0.18
2023-11-30T20:15:48.709Z,0.16
2023-11-30T20:17:53.627Z,0.25
2023-11-30T20:19:58.512Z,0.31
2023-11-30T20:22:00.858Z,0.36
2023-11-30T20:24:06.535Z,0.37
2023-11-30T20:26:11.799Z,0.37
2023-11-30T20:28:16.725Z,0.40
2023-11-30T20:30:21.918Z,0.35
2023-11-30T20:32:29.654Z,0.35
2023-11-30T20:34:34.596Z,0.43
2023-11-30T20:36:39.953Z,0.53
2023-11-30T20:38:42.626Z,0.52
2023-11-30T20:40:47.657Z,0.47
2023-11-30T20:42:53.320Z,0.47
2023-11-30T20:44:58.813Z,0.49
2023-11-30T20:47:03.803Z,0.46
2023-11-30T20:49:13.662Z,0.29
2023-11-30T20:51:23.369Z,0.24
2023-11-30T20:53:29.586Z,0.17
2023-11-30T20:55:35.320Z,0.13
2023-11-30T20:57:43.067Z,0.25
2023-11-30T20:59:47.982Z,0.24
2023-11-30T21:01:53.153Z,0.15
2023-11-30T21:03:58.189Z,0.20
2023-11-30T21:06:06.751Z,0.24
2023-11-30T21:08:11.684Z,0.24
2023-11-30T21:10:18.570Z,0.12
2023-11-30T21:12:23.417Z,0.14
2023-11-30T21:14:31.506Z,0.15
2023-11-30T21:16:38.582Z,0.18
2023-11-30T21:18:46.407Z,0.13
2023-11-30T21:20:51.557Z,0.08
2023-11-30T21:22:58.996Z,0.10
2023-11-30T21:25:04.162Z,0.15
2023-11-30T21:27:09.917Z,0.15
2023-11-30T21:29:14.840Z,0.10
2023-11-30T21:31:21.873Z,0.12
2023-11-30T21:33:28.168Z,0.14
2023-11-30T21:35:33.158Z,0.11
2023-11-30T21:37:38.138Z,0.18
2023-11-30T21:39:45.698Z,0.21
2023-11-30T21:41:48.865Z,0.26
2023-11-30T21:43:53.615Z,0.29
2023-11-30T21:45:59.232Z,0.29
2023-11-30T21:48:04.405Z,0.24
2023-11-30T21:50:16.848Z,0.12
2023-11-30T21:52:21.963Z,0.12
2023-11-30T21:54:26.849Z,0.08
2023-11-30T21:56:31.695Z,0.05
2023-11-30T21:58:38.530Z,0.05
2023-11-30T22:00:45.030Z,0.06
2023-11-30T22:02:50.167Z,-0.02
2023-11-30T22:04:55.516Z,-0.04
2023-11-30T22:07:00.494Z,-0.01
2023-11-30T22:09:07.347Z,0.19
2023-11-30T22:11:12.489Z,0.17
2023-11-30T22:13:20.271Z,0.14
2023-11-30T22:15:25.834Z,0.16
2023-11-30T22:17:30.891Z,0.21
2023-11-30T22:19:35.985Z,-0.08
2023-11-30T22:21:41.141Z,-0.01
2023-11-30T22:23:46.042Z,-0.03
2023-11-30T22:25:56.236Z,-0.01
2023-11-30T22:28:07.737Z,0.04
2023-11-30T22:30:16.530Z,0.06
2023-11-30T22:32:21.533Z,0.04
2023-11-30T22:34:27.005Z,0.14
2023-11-30T22:36:32.061Z,0.10
2023-11-30T22:38:43.673Z,0.06
2023-11-30T22:40:50.868Z,0.04
2023-11-30T22:42:55.774Z,0.03
2023-11-30T22:45:02.365Z,0.06
2023-11-30T22:47:10.380Z,-0.02
2023-11-30T22:49:20.576Z,0.04
2023-11-30T22:51:27.605Z,-0.10
2023-11-30T22:53:32.876Z,-0.09
2023-11-30T22:55:38.333Z,-0.11
2023-11-30T22:57:43.510Z,-0.07
2023-11-30T22:59:48.831Z,-0.10
2023-11-30T23:01:54.018Z,-0.15
2023-11-30T23:04:02.759Z,-0.25
2023-11-30T23:06:06.930Z,-0.20
2023-11-30T23:08:11.848Z,-0.27
2023-11-30T23:10:18.676Z,-0.25
2023-11-30T23:12:23.733Z,-0.18
2023-11-30T23:14:33.603Z,-0.24
2023-11-30T23:16:38.742Z,-0.20
2023-11-30T23:18:43.945Z,-0.13
2023-11-30T23:20:51.475Z,-0.26
2023-11-30T23:22:59.229Z,-0.32
2023-11-30T23:25:04.211Z,-0.24
2023-11-30T23:27:10.274Z,-0.27
2023-11-30T23:29:15.193Z,-0.26
2023-11-30T23:31:20.672Z,-0.31
2023-11-30T23:33:23.441Z,-0.35
2023-11-30T23:35:28.622Z,-0.37
2023-11-30T23:37:36.859Z,-0.37
2023-11-30T23:39:41.783Z,-0.46
2023-11-30T23:41:46.772Z,-0.34
2023-11-30T23:43:51.545Z,-0.40
2023-11-30T23:45:58.305Z,-0.27
2023-11-30T23:48:03.446Z,-0.32
2023-11-30T23:50:10.305Z,-0.31
2023-11-30T23:52:19.303Z,-0.35
2023-11-30T23:54:26.990Z,-0.30
2023-11-30T23:56:31.906Z,-0.33
2023-11-30T23:58:37.338Z,-0.41
